createdAt,value
2018-04-23T00:00:59.972Z,0
2018-04-23T00:02:21.768Z,0
2018-04-23T00:03:43.570Z,0
2018-04-23T00:05:05.368Z,0
2018-04-23T00:06:26.905Z,0
2018-04-23T00:07:48.432Z,0
2018-04-23T00:09:10.231Z,0
2018-04-23T00:10:31.827Z,0
2018-04-23T00:11:53.616Z,0
2018-04-23T00:13:15.680Z,0
2018-04-23T00:14:37.728Z,0
2018-04-23T00:15:59.043Z,0
2018-04-23T00:17:21.088Z,0
2018-04-23T00:18:42.945Z,0
2018-04-23T00:20:04.792Z,0
2018-04-23T00:21:26.595Z,0
2018-04-23T00:22:48.130Z,0
2018-04-23T00:24:10.178Z,0
2018-04-23T00:25:31.974Z,0
2018-04-23T00:26:53.503Z,0
2018-04-23T00:28:15.032Z,0
2018-04-23T00:29:36.832Z,0
2018-04-23T00:30:58.624Z,0
2018-04-23T00:32:20.440Z,0
2018-04-23T00:33:42.233Z,0
2018-04-23T00:35:03.781Z,0
2018-04-23T00:36:25.574Z,0
2018-04-23T00:37:47.372Z,0
2018-04-23T00:39:09.425Z,0
2018-04-23T00:40:30.952Z,0
2018-04-23T00:41:52.747Z,0
2018-04-23T00:43:14.029Z,0
2018-04-23T00:44:36.078Z,0
2018-04-23T00:45:58.148Z,0
2018-04-23T00:47:19.691Z,0
2018-04-23T00:48:41.488Z,0
2018-04-23T00:50:03.280Z,0
2018-04-23T00:51:25.092Z,0
2018-04-23T00:52:47.154Z,0
2018-04-23T00:54:09.221Z,0
2018-04-23T00:55:31.285Z,0
2018-04-23T00:56:53.364Z,0
2018-04-23T00:58:14.896Z,0
2018-04-23T00:59:36.962Z,0
2018-04-23T01:00:59.031Z,0
2018-04-23T01:02:21.104Z,0
2018-04-23T01:03:42.902Z,0
2018-04-23T01:05:04.722Z,0
2018-04-23T01:06:26.516Z,0
2018-04-23T01:07:48.589Z,0
2018-04-23T01:09:10.391Z,0
2018-04-23T01:10:32.182Z,0
2018-04-23T01:11:53.987Z,0
2018-04-23T01:13:15.516Z,0
2018-04-23T01:14:37.308Z,0
2018-04-23T01:15:59.172Z,0
2018-04-23T01:17:21.221Z,0
2018-04-23T01:18:43.035Z,0
2018-04-23T01:20:04.297Z,0
2018-04-23T01:21:26.096Z,0
2018-04-23T01:22:47.889Z,0
2018-04-23T01:24:09.955Z,0
2018-04-23T01:25:32.023Z,0
2018-04-23T01:26:53.837Z,0
2018-04-23T01:28:15.646Z,0
2018-04-23T01:29:36.921Z,0
2018-04-23T01:30:58.981Z,0
2018-04-23T01:32:20.527Z,0
2018-04-23T01:33:42.622Z,0
2018-04-23T01:35:04.673Z,0
2018-04-23T01:36:26.473Z,0
2018-04-23T01:37:48.536Z,0
2018-04-23T01:39:10.593Z,0
2018-04-23T01:40:32.388Z,0
2018-04-23T01:41:54.453Z,0
2018-04-23T01:43:16.252Z,0
2018-04-23T01:44:38.058Z,0
2018-04-23T01:46:00.111Z,0
2018-04-23T01:47:21.916Z,0
2018-04-23T01:48:43.721Z,0
2018-04-23T01:50:05.252Z,0
2018-04-23T01:51:27.052Z,0
2018-04-23T01:52:48.580Z,0
2018-04-23T01:54:10.381Z,0
2018-04-23T01:55:32.440Z,0
2018-04-23T01:56:54.245Z,0
2018-04-23T01:58:16.298Z,0
2018-04-23T01:59:38.095Z,0
2018-04-23T02:01:00.163Z,0
2018-04-23T02:02:21.713Z,0
2018-04-23T02:03:43.771Z,0
2018-04-23T02:05:05.569Z,0
2018-04-23T02:06:27.634Z,0
2018-04-23T02:07:49.172Z,0
2018-04-23T02:09:10.697Z,0
2018-04-23T02:10:32.760Z,0
2018-04-23T02:11:54.316Z,0
2018-04-23T02:13:16.109Z,0
2018-04-23T02:14:37.911Z,0
2018-04-23T02:15:59.697Z,0
2018-04-23T02:17:21.234Z,0
2018-04-23T02:18:43.321Z,0
2018-04-23T02:20:04.993Z,0
2018-04-23T02:21:26.529Z,0
2018-04-23T02:22:48.340Z,0
2018-04-23T02:24:09.874Z,0
2018-04-23T02:25:31.917Z,0
2018-04-23T02:26:53.991Z,0
2018-04-23T02:28:15.805Z,0
2018-04-23T02:29:37.332Z,0
2018-04-23T02:30:59.383Z,0
2018-04-23T02:32:21.434Z,0
2018-04-23T02:33:43.499Z,0
2018-04-23T02:35:05.047Z,0
2018-04-23T02:36:26.853Z,0
2018-04-23T02:37:48.122Z,0
2018-04-23T02:39:09.660Z,0
2018-04-23T02:40:31.469Z,0
2018-04-23T02:41:53.527Z,0
2018-04-23T02:43:15.333Z,0
2018-04-23T02:44:37.388Z,0
2018-04-23T02:45:58.926Z,0
2018-04-23T02:47:20.219Z,0
2018-04-23T02:48:42.019Z,0
2018-04-23T02:50:04.079Z,0
2018-04-23T02:51:25.890Z,0
2018-04-23T02:52:47.953Z,0
2018-04-23T02:54:10.028Z,0
2018-04-23T02:55:31.591Z,0
2018-04-23T02:56:53.419Z,0
2018-04-23T02:58:14.955Z,0
2018-04-23T02:59:36.780Z,0
2018-04-23T03:00:58.579Z,0
2018-04-23T03:02:20.655Z,0
2018-04-23T03:03:41.948Z,0
2018-04-23T03:05:03.810Z,0
2018-04-23T03:06:25.341Z,0
2018-04-23T03:07:47.415Z,0
2018-04-23T03:09:09.480Z,0
2018-04-23T03:10:31.288Z,0
2018-04-23T03:11:53.379Z,0
2018-04-23T03:13:15.437Z,0
2018-04-23T03:14:37.489Z,0
2018-04-23T03:15:59.296Z,0
2018-04-23T03:17:20.576Z,0
2018-04-23T03:18:42.372Z,0
2018-04-23T03:20:04.166Z,0
2018-04-23T03:21:25.709Z,0
2018-04-23T03:22:47.499Z,0
2018-04-23T03:24:09.289Z,0
2018-04-23T03:25:31.339Z,0
2018-04-23T03:26:53.163Z,0
2018-04-23T03:28:14.967Z,0
2018-04-23T03:29:37.043Z,0
2018-04-23T03:30:58.854Z,4
2018-04-23T03:32:20.643Z,4
2018-04-23T03:33:42.700Z,0
2018-04-23T03:35:04.486Z,4
2018-04-23T03:36:26.549Z,8
2018-04-23T03:37:48.093Z,8
2018-04-23T03:39:09.625Z,8
2018-04-23T03:40:31.678Z,8
2018-04-23T03:41:53.752Z,12
2018-04-23T03:43:15.822Z,16
2018-04-23T03:44:37.625Z,16
2018-04-23T03:45:59.411Z,20
2018-04-23T03:47:21.201Z,24
2018-04-23T03:48:42.726Z,32
2018-04-23T03:50:04.260Z,36
2018-04-23T03:51:26.300Z,44
2018-04-23T03:52:48.091Z,48
2018-04-23T03:54:09.629Z,60
2018-04-23T03:55:31.720Z,64
2018-04-23T03:56:53.524Z,80
2018-04-23T03:58:15.583Z,92
2018-04-23T03:59:37.397Z,104
2018-04-23T04:00:59.445Z,124
2018-04-23T04:02:21.500Z,140
2018-04-23T04:03:43.622Z,160
2018-04-23T04:05:05.675Z,180
2018-04-23T04:06:27.726Z,208
2018-04-23T04:07:49.274Z,236
2018-04-23T04:09:11.070Z,268
2018-04-23T04:10:33.174Z,300
2018-04-23T04:11:54.966Z,344
2018-04-23T04:13:17.028Z,392
2018-04-23T04:14:38.830Z,456
2018-04-23T04:16:00.625Z,528
2018-04-23T04:17:22.164Z,596
2018-04-23T04:18:43.988Z,664
2018-04-23T04:20:05.517Z,740
2018-04-23T04:21:27.589Z,816
2018-04-23T04:22:49.648Z,896
2018-04-23T04:24:11.713Z,988
2018-04-23T04:25:33.511Z,1088
2018-04-23T04:26:55.304Z,1200
2018-04-23T04:28:17.355Z,1296
2018-04-23T04:29:39.151Z,1388
2018-04-23T04:31:01.219Z,1468
2018-04-23T04:32:23.018Z,1500
2018-04-23T04:33:45.126Z,1576
2018-04-23T04:35:06.924Z,1688
2018-04-23T04:36:28.716Z,1816
2018-04-23T04:37:50.260Z,1908
2018-04-23T04:39:12.341Z,1940
2018-04-23T04:40:34.402Z,2028
2018-04-23T04:41:56.467Z,2216
2018-04-23T04:43:18.297Z,2384
2018-04-23T04:44:40.383Z,2668
2018-04-23T04:46:01.931Z,2840
2018-04-23T04:47:24.004Z,2844
2018-04-23T04:48:45.796Z,3060
2018-04-23T04:50:07.856Z,3392
2018-04-23T04:51:30.040Z,3404
2018-04-23T04:52:52.113Z,2600
2018-04-23T04:54:13.651Z,2212
2018-04-23T04:55:35.467Z,2248
2018-04-23T04:56:57.539Z,2052
2018-04-23T04:58:19.373Z,2120
2018-04-23T04:59:40.661Z,2432
2018-04-23T05:01:02.713Z,2896
2018-04-23T05:02:24.264Z,3232
2018-04-23T05:03:46.066Z,3476
2018-04-23T05:05:07.894Z,3852
2018-04-23T05:06:29.970Z,4200
2018-04-23T05:07:51.788Z,4472
2018-04-23T05:09:13.847Z,4760
2018-04-23T05:10:35.399Z,4976
2018-04-23T05:11:57.309Z,5136
2018-04-23T05:13:19.384Z,5260
2018-04-23T05:14:41.461Z,5496
2018-04-23T05:16:03.281Z,5968
2018-04-23T05:17:25.372Z,6488
2018-04-23T05:18:47.440Z,7040
2018-04-23T05:20:09.524Z,7588
2018-04-23T05:21:30.806Z,8148
2018-04-23T05:22:52.878Z,8620
2018-04-23T05:24:14.950Z,8820
2018-04-23T05:25:36.752Z,8640
2018-04-23T05:26:58.820Z,9940
2018-04-23T05:28:20.880Z,10456
2018-04-23T05:29:42.427Z,11188
2018-04-23T05:31:04.230Z,12236
2018-04-23T05:32:26.295Z,16512
2018-04-23T05:33:48.096Z,16256
2018-04-23T05:35:10.162Z,17664
2018-04-23T05:36:31.971Z,19104
2018-04-23T05:37:53.799Z,19744
2018-04-23T05:39:15.877Z,14400
2018-04-23T05:40:37.957Z,12480
2018-04-23T05:41:59.498Z,15584
2018-04-23T05:43:21.126Z,13696
2018-04-23T05:44:42.940Z,9868
2018-04-23T05:46:04.747Z,5704
2018-04-23T05:47:26.596Z,4748
2018-04-23T05:48:48.130Z,6004
2018-04-23T05:50:09.670Z,6644
2018-04-23T05:51:31.766Z,7700
2018-04-23T05:52:53.861Z,9532
2018-04-23T05:54:15.922Z,9508
2018-04-23T05:55:37.468Z,9292
2018-04-23T05:56:59.540Z,8864
2018-04-23T05:58:21.620Z,8016
2018-04-23T05:59:43.429Z,7948
2018-04-23T06:01:05.488Z,8164
2018-04-23T06:02:27.572Z,7444
2018-04-23T06:03:49.643Z,6872
2018-04-23T06:05:11.470Z,7620
2018-04-23T06:06:33.103Z,6608
2018-04-23T06:07:55.172Z,6864
2018-04-23T06:09:17.230Z,7600
2018-04-23T06:10:39.039Z,7200
2018-04-23T06:12:00.819Z,7340
2018-04-23T06:13:22.637Z,7312
2018-04-23T06:14:44.197Z,7136
2018-04-23T06:16:06.280Z,6492
2018-04-23T06:17:28.081Z,6576
2018-04-23T06:18:49.934Z,5968
2018-04-23T06:20:11.990Z,6152
2018-04-23T06:21:33.787Z,5916
2018-04-23T06:22:55.855Z,6264
2018-04-23T06:24:18.038Z,7748
2018-04-23T06:25:40.119Z,12196
2018-04-23T06:27:02.944Z,16896
2018-04-23T06:28:24.965Z,15776
2018-04-23T06:29:46.526Z,20192
2018-04-23T06:31:08.335Z,19264
2018-04-23T06:32:30.143Z,23424
2018-04-23T06:33:51.174Z,10684
2018-04-23T06:35:12.505Z,11168
2018-04-23T06:36:34.325Z,27872
2018-04-23T06:37:56.392Z,11804
2018-04-23T06:39:18.469Z,12304
2018-04-23T06:40:40.293Z,15244
2018-04-23T06:42:02.105Z,15080
2018-04-23T06:43:24.174Z,26720
2018-04-23T06:44:46.001Z,23296
2018-04-23T06:46:08.083Z,21312
2018-04-23T06:47:29.642Z,35328
2018-04-23T06:48:51.722Z,40960
2018-04-23T06:50:13.793Z,42080
2018-04-23T06:51:35.914Z,42592
2018-04-23T06:52:57.993Z,44928
2018-04-23T06:54:20.079Z,40864
2018-04-23T06:55:42.138Z,48384
2018-04-23T06:57:03.947Z,49984
2018-04-23T06:58:26.030Z,50976
2018-04-23T06:59:48.106Z,18848
2018-04-23T07:01:10.185Z,16116
2018-04-23T07:02:32.019Z,25984
2018-04-23T07:03:53.594Z,22880
2018-04-23T07:05:15.889Z,18112
2018-04-23T07:06:37.975Z,26240
2018-04-23T07:07:59.526Z,25056
2018-04-23T07:09:21.580Z,19808
2018-04-23T07:10:43.249Z,18848
2018-04-23T07:12:04.799Z,16384
2018-04-23T07:13:26.864Z,21024
2018-04-23T07:14:48.705Z,15336
2018-04-23T07:16:10.535Z,14276
2018-04-23T07:17:32.102Z,14524
2018-04-23T07:18:54.197Z,19360
2018-04-23T07:20:15.736Z,18816
2018-04-23T07:21:37.827Z,16800
2018-04-23T07:22:59.891Z,18208
2018-04-23T07:24:21.486Z,16576
2018-04-23T07:25:43.320Z,25664
2018-04-23T07:27:04.868Z,15284
2018-04-23T07:28:26.945Z,14628
2018-04-23T07:29:49.067Z,19040
2018-04-23T07:31:10.627Z,16116
2018-04-23T07:32:32.454Z,24096
2018-04-23T07:33:54.279Z,19776
2018-04-23T07:35:15.826Z,13592
2018-04-23T07:36:37.651Z,17312
2018-04-23T07:37:59.461Z,12592
2018-04-23T07:39:21.018Z,10216
2018-04-23T07:40:43.162Z,12764
2018-04-23T07:42:04.760Z,15864
2018-04-23T07:43:26.568Z,12040
2018-04-23T07:44:48.392Z,12692
2018-04-23T07:46:10.210Z,11104
2018-04-23T07:47:32.032Z,10260
2018-04-23T07:48:54.108Z,11936
2018-04-23T07:50:15.923Z,14232
2018-04-23T07:51:37.737Z,16448
2018-04-23T07:52:59.810Z,20320
2018-04-23T07:54:21.746Z,26464
2018-04-23T07:55:43.543Z,20960
2018-04-23T07:57:05.600Z,22688
2018-04-23T07:58:27.666Z,22720
2018-04-23T07:59:49.497Z,22784
2018-04-23T08:01:11.588Z,23168
2018-04-23T08:02:33.683Z,20832
2018-04-23T08:03:55.496Z,21984
2018-04-23T08:05:17.600Z,18496
2018-04-23T08:06:39.560Z,15476
2018-04-23T08:08:01.647Z,16736
2018-04-23T08:09:23.480Z,20960
2018-04-23T08:10:45.301Z,20256
2018-04-23T08:12:07.381Z,19968
2018-04-23T08:13:29.505Z,20800
2018-04-23T08:14:51.307Z,17952
2018-04-23T08:16:13.381Z,19104
2018-04-23T08:17:35.497Z,14280
2018-04-23T08:18:57.038Z,16480
2018-04-23T08:20:19.101Z,20544
2018-04-23T08:21:41.177Z,15200
2018-04-23T08:23:03.249Z,20768
2018-04-23T08:24:25.341Z,18688
2018-04-23T08:25:46.967Z,17312
2018-04-23T08:27:08.548Z,12184
2018-04-23T08:28:30.715Z,15544
2018-04-23T08:29:52.539Z,22368
2018-04-23T08:31:14.629Z,16220
2018-04-23T08:32:36.449Z,15800
2018-04-23T08:33:58.545Z,21568
2018-04-23T08:35:20.634Z,22656
2018-04-23T08:36:42.451Z,15656
2018-04-23T08:38:04.063Z,12716
2018-04-23T08:39:25.869Z,13328
2018-04-23T08:40:47.948Z,15692
2018-04-23T08:42:09.508Z,20224
2018-04-23T08:43:31.327Z,23456
2018-04-23T08:44:52.884Z,26848
2018-04-23T08:46:14.710Z,21280
2018-04-23T08:47:36.683Z,13016
2018-04-23T08:48:58.845Z,9892
2018-04-23T08:50:20.934Z,12680
2018-04-23T08:51:42.498Z,16608
2018-04-23T08:53:04.567Z,15404
2018-04-23T08:54:26.677Z,13180
2018-04-23T08:55:48.584Z,13988
2018-04-23T08:57:10.146Z,16704
2018-04-23T08:58:31.950Z,20192
2018-04-23T08:59:53.766Z,20096
2018-04-23T09:01:15.374Z,21024
2018-04-23T09:02:37.463Z,22976
2018-04-23T09:03:59.551Z,22240
2018-04-23T09:05:21.372Z,20064
2018-04-23T09:06:43.178Z,19360
2018-04-23T09:08:04.986Z,20032
2018-04-23T09:09:27.058Z,17376
2018-04-23T09:10:48.858Z,13668
2018-04-23T09:12:10.400Z,15148
2018-04-23T09:13:32.479Z,13792
2018-04-23T09:14:54.550Z,12284
2018-04-23T09:16:16.620Z,11964
2018-04-23T09:17:38.849Z,12860
2018-04-23T09:19:00.945Z,11440
2018-04-23T09:20:23.015Z,11148
2018-04-23T09:21:45.100Z,11128
2018-04-23T09:23:06.642Z,12824
2018-04-23T09:24:28.445Z,12512
2018-04-23T09:25:50.282Z,16648
2018-04-23T09:27:12.110Z,16668
2018-04-23T09:28:34.189Z,14624
2018-04-23T09:29:55.985Z,16400
2018-04-23T09:31:17.788Z,19712
2018-04-23T09:32:39.864Z,19264
2018-04-23T09:34:01.952Z,17344
2018-04-23T09:35:24.072Z,16588
2018-04-23T09:36:46.189Z,17568
2018-04-23T09:38:08.013Z,17100
2018-04-23T09:39:30.099Z,19712
2018-04-23T09:40:52.187Z,21536
2018-04-23T09:42:14.273Z,25440
2018-04-23T09:43:36.349Z,26912
2018-04-23T09:44:58.534Z,26176
2018-04-23T09:46:20.339Z,23680
2018-04-23T09:47:42.155Z,21408
2018-04-23T09:49:04.247Z,15492
2018-04-23T09:50:26.352Z,8276
2018-04-23T09:51:48.430Z,6400
2018-04-23T09:53:10.508Z,6856
2018-04-23T09:54:32.581Z,8568
2018-04-23T09:55:54.396Z,7308
2018-04-23T09:57:16.202Z,7376
2018-04-23T09:58:38.314Z,8524
2018-04-23T10:00:00.146Z,11164
2018-04-23T10:01:22.050Z,10252
2018-04-23T10:02:44.131Z,9472
2018-04-23T10:04:05.938Z,9548
2018-04-23T10:05:27.493Z,10068
2018-04-23T10:06:49.038Z,11560
2018-04-23T10:08:11.119Z,11540
2018-04-23T10:09:32.670Z,10800
2018-04-23T10:10:54.780Z,10548
2018-04-23T10:12:16.644Z,12256
2018-04-23T10:13:38.483Z,14632
2018-04-23T10:15:00.569Z,14476
2018-04-23T10:16:22.122Z,14544
2018-04-23T10:17:43.938Z,16608
2018-04-23T10:19:05.758Z,20320
2018-04-23T10:20:27.586Z,19200
2018-04-23T10:21:49.652Z,15132
2018-04-23T10:23:11.214Z,12660
2018-04-23T10:24:33.293Z,10988
2018-04-23T10:25:55.387Z,10116
2018-04-23T10:27:17.451Z,10008
2018-04-23T10:28:39.292Z,11680
2018-04-23T10:30:01.433Z,12104
2018-04-23T10:31:23.581Z,10204
2018-04-23T10:32:45.480Z,9472
2018-04-23T10:34:07.292Z,8936
2018-04-23T10:35:28.847Z,8616
2018-04-23T10:36:50.985Z,7464
2018-04-23T10:38:12.544Z,7820
2018-04-23T10:39:34.356Z,10024
2018-04-23T10:40:56.447Z,11064
2018-04-23T10:42:18.523Z,14548
2018-04-23T10:43:40.337Z,12096
2018-04-23T10:45:02.412Z,15056
2018-04-23T10:46:24.217Z,15144
2018-04-23T10:47:46.013Z,12412
2018-04-23T10:49:07.869Z,11896
2018-04-23T10:50:29.934Z,14152
2018-04-23T10:51:50.947Z,16260
2018-04-23T10:53:12.492Z,15692
2018-04-23T10:54:34.295Z,17920
2018-04-23T10:55:56.391Z,18496
2018-04-23T10:57:18.489Z,15364
2018-04-23T10:58:40.019Z,11948
2018-04-23T11:00:02.235Z,10604
2018-04-23T11:01:23.785Z,9644
2018-04-23T11:02:45.574Z,10264
2018-04-23T11:04:07.655Z,11032
2018-04-23T11:05:29.201Z,11924
2018-04-23T11:06:51.299Z,13188
2018-04-23T11:08:13.114Z,14124
2018-04-23T11:09:34.942Z,9848
2018-04-23T11:10:57.048Z,7616
2018-04-23T11:12:18.867Z,6968
2018-04-23T11:13:40.688Z,8700
2018-04-23T11:15:02.777Z,9752
2018-04-23T11:16:24.849Z,11312
2018-04-23T11:17:46.667Z,13588
2018-04-23T11:19:08.464Z,13804
2018-04-23T11:20:30.297Z,13016
2018-04-23T11:21:52.393Z,14520
2018-04-23T11:23:14.503Z,15344
2018-04-23T11:24:36.052Z,16896
2018-04-23T11:25:58.121Z,16896
2018-04-23T11:27:19.931Z,17280
2018-04-23T11:28:41.745Z,16640
2018-04-23T11:30:03.323Z,16176
2018-04-23T11:31:25.129Z,15328
2018-04-23T11:32:46.979Z,14992
2018-04-23T11:34:08.271Z,13988
2018-04-23T11:35:30.363Z,13372
2018-04-23T11:36:52.461Z,11340
2018-04-23T11:38:14.533Z,9904
2018-04-23T11:39:36.635Z,10228
2018-04-23T11:40:58.480Z,12400
2018-04-23T11:42:20.309Z,14332
2018-04-23T11:43:41.861Z,14268
2018-04-23T11:45:03.992Z,15888
2018-04-23T11:46:26.173Z,16340
2018-04-23T11:47:47.980Z,16512
2018-04-23T11:49:10.045Z,17056
2018-04-23T11:50:32.134Z,19264
2018-04-23T11:51:54.208Z,17280
2018-04-23T11:53:16.154Z,17344
2018-04-23T11:54:37.983Z,14540
2018-04-23T11:56:00.051Z,11956
2018-04-23T11:57:21.881Z,9624
2018-04-23T11:58:43.985Z,8120
2018-04-23T12:00:06.086Z,7576
2018-04-23T12:01:28.170Z,10120
2018-04-23T12:02:50.295Z,11556
2018-04-23T12:04:11.850Z,10596
2018-04-23T12:05:33.930Z,10988
2018-04-23T12:06:56.005Z,10484
2018-04-23T12:08:18.081Z,10624
2018-04-23T12:09:39.887Z,10396
2018-04-23T12:11:01.236Z,10412
2018-04-23T12:12:23.034Z,10496
2018-04-23T12:13:45.128Z,11516
2018-04-23T12:15:06.684Z,10528
2018-04-23T12:16:28.529Z,12312
2018-04-23T12:17:50.603Z,14100
2018-04-23T12:19:12.424Z,16200
2018-04-23T12:20:34.494Z,17824
2018-04-23T12:21:56.549Z,16736
2018-04-23T12:23:18.365Z,17536
2018-04-23T12:24:40.184Z,16388
2018-04-23T12:26:02.253Z,14752
2018-04-23T12:27:23.795Z,13024
2018-04-23T12:28:45.601Z,13380
2018-04-23T12:30:07.682Z,13388
2018-04-23T12:31:29.830Z,11624
2018-04-23T12:32:51.635Z,8352
2018-04-23T12:34:13.459Z,8064
2018-04-23T12:35:35.530Z,9492
2018-04-23T12:36:57.084Z,9208
2018-04-23T12:38:19.186Z,9864
2018-04-23T12:39:41.027Z,10536
2018-04-23T12:41:03.220Z,9544
2018-04-23T12:42:25.053Z,10136
2018-04-23T12:43:46.883Z,11068
2018-04-23T12:45:08.963Z,12440
2018-04-23T12:46:31.187Z,12180
2018-04-23T12:47:53.003Z,12072
2018-04-23T12:49:14.569Z,12260
2018-04-23T12:50:36.388Z,11916
2018-04-23T12:51:58.193Z,10276
2018-04-23T12:53:20.002Z,9780
2018-04-23T12:54:42.096Z,10616
2018-04-23T12:56:04.160Z,11388
2018-04-23T12:57:26.006Z,8936
2018-04-23T12:58:47.816Z,7572
2018-04-23T13:00:09.898Z,7368
2018-04-23T13:01:31.998Z,7404
2018-04-23T13:02:53.548Z,7696
2018-04-23T13:04:15.376Z,6468
2018-04-23T13:05:37.480Z,6972
2018-04-23T13:06:59.573Z,6488
2018-04-23T13:08:21.382Z,6748
2018-04-23T13:09:43.464Z,7536
2018-04-23T13:11:05.548Z,8100
2018-04-23T13:12:27.243Z,9104
2018-04-23T13:13:49.321Z,12192
2018-04-23T13:15:11.394Z,13832
2018-04-23T13:16:33.220Z,12960
2018-04-23T13:17:55.048Z,11224
2018-04-23T13:19:17.123Z,11904
2018-04-23T13:20:38.958Z,11988
2018-04-23T13:22:01.031Z,12312
2018-04-23T13:23:22.863Z,12684
2018-04-23T13:24:44.953Z,10700
2018-04-23T13:26:06.759Z,9948
2018-04-23T13:27:28.854Z,10444
2018-04-23T13:28:50.970Z,10076
2018-04-23T13:30:13.040Z,8632
2018-04-23T13:31:34.901Z,9256
2018-04-23T13:32:56.727Z,8960
2018-04-23T13:34:18.544Z,8740
2018-04-23T13:35:40.598Z,8900
2018-04-23T13:37:02.755Z,9056
2018-04-23T13:38:24.814Z,9544
2018-04-23T13:39:46.884Z,11824
2018-04-23T13:41:08.715Z,13360
2018-04-23T13:42:30.600Z,13388
2018-04-23T13:43:52.504Z,13604
2018-04-23T13:45:14.338Z,13452
2018-04-23T13:46:36.458Z,14264
2018-04-23T13:47:58.288Z,13672
2018-04-23T13:49:20.391Z,13748
2018-04-23T13:50:42.199Z,14016
2018-04-23T13:52:04.039Z,14032
2018-04-23T13:53:25.996Z,12792
2018-04-23T13:54:48.066Z,12556
2018-04-23T13:56:10.192Z,13468
2018-04-23T13:57:32.075Z,15336
2018-04-23T13:58:54.149Z,14560
2018-04-23T14:00:16.254Z,12804
2018-04-23T14:01:38.162Z,11352
2018-04-23T14:03:00.227Z,11876
2018-04-23T14:04:21.532Z,10664
2018-04-23T14:05:43.638Z,10044
2018-04-23T14:07:05.805Z,10016
2018-04-23T14:08:27.618Z,9784
2018-04-23T14:09:49.445Z,9352
2018-04-23T14:11:11.274Z,9464
2018-04-23T14:12:33.078Z,8792
2018-04-23T14:13:55.155Z,8512
2018-04-23T14:15:17.275Z,8280
2018-04-23T14:16:39.100Z,7876
2018-04-23T14:18:00.919Z,7788
2018-04-23T14:19:22.802Z,7480
2018-04-23T14:20:44.371Z,7288
2018-04-23T14:22:06.463Z,8356
2018-04-23T14:23:28.299Z,9700
2018-04-23T14:24:50.386Z,11736
2018-04-23T14:26:12.219Z,13356
2018-04-23T14:27:34.319Z,13360
2018-04-23T14:28:56.138Z,13712
2018-04-23T14:30:18.226Z,14672
2018-04-23T14:31:40.034Z,16768
2018-04-23T14:33:02.140Z,14476
2018-04-23T14:34:24.275Z,12508
2018-04-23T14:35:46.100Z,12144
2018-04-23T14:37:08.183Z,11108
2018-04-23T14:38:30.017Z,9964
2018-04-23T14:39:51.857Z,9592
2018-04-23T14:41:13.688Z,9224
2018-04-23T14:42:35.532Z,9104
2018-04-23T14:43:57.354Z,9168
2018-04-23T14:45:19.587Z,9188
2018-04-23T14:46:41.848Z,9636
2018-04-23T14:48:03.670Z,9852
2018-04-23T14:49:25.751Z,9732
2018-04-23T14:50:47.866Z,10476
2018-04-23T14:52:09.971Z,10448
2018-04-23T14:53:32.054Z,10984
2018-04-23T14:54:53.878Z,10852
2018-04-23T14:56:15.687Z,10360
2018-04-23T14:57:37.541Z,9624
2018-04-23T14:58:59.645Z,8552
2018-04-23T15:00:21.760Z,8264
2018-04-23T15:01:43.844Z,8248
2018-04-23T15:03:05.931Z,8468
2018-04-23T15:04:28.024Z,9684
2018-04-23T15:05:49.881Z,11288
2018-04-23T15:07:11.706Z,11816
2018-04-23T15:08:33.854Z,12060
2018-04-23T15:09:55.937Z,11940
2018-04-23T15:11:17.754Z,12064
2018-04-23T15:12:39.837Z,11556
2018-04-23T15:14:01.665Z,10456
2018-04-23T15:15:23.746Z,8776
2018-04-23T15:16:45.300Z,8052
2018-04-23T15:18:07.173Z,7552
2018-04-23T15:19:29.267Z,7712
2018-04-23T15:20:51.110Z,7900
2018-04-23T15:22:12.954Z,8216
2018-04-23T15:23:34.792Z,8448
2018-04-23T15:24:56.891Z,9380
2018-04-23T15:26:18.962Z,10424
2018-04-23T15:27:41.253Z,10572
2018-04-23T15:29:03.359Z,11212
2018-04-23T15:30:25.212Z,12244
2018-04-23T15:31:46.770Z,11056
2018-04-23T15:33:08.903Z,8424
2018-04-23T15:34:30.803Z,7508
2018-04-23T15:35:52.927Z,7044
2018-04-23T15:37:15.081Z,7000
2018-04-23T15:38:36.947Z,7124
2018-04-23T15:39:59.024Z,8040
2018-04-23T15:41:21.263Z,8552
2018-04-23T15:42:43.093Z,8896
2018-04-23T15:44:05.180Z,8884
2018-04-23T15:45:27.022Z,8660
2018-04-23T15:46:49.129Z,7988
2018-04-23T15:48:11.191Z,7604
2018-04-23T15:49:33.064Z,8224
2018-04-23T15:50:54.904Z,10220
2018-04-23T15:52:17.010Z,10128
2018-04-23T15:53:38.869Z,8952
2018-04-23T15:55:00.964Z,8608
2018-04-23T15:56:23.062Z,8848
2018-04-23T15:57:45.175Z,8864
2018-04-23T15:59:07.281Z,8032
2018-04-23T16:00:29.374Z,7024
2018-04-23T16:01:51.494Z,6268
2018-04-23T16:03:13.365Z,6060
2018-04-23T16:04:35.456Z,5944
2018-04-23T16:05:57.619Z,5836
2018-04-23T16:07:19.174Z,5804
2018-04-23T16:08:40.995Z,5904
2018-04-23T16:10:02.833Z,5824
2018-04-23T16:11:24.400Z,5800
2018-04-23T16:12:46.502Z,5808
2018-04-23T16:14:08.612Z,5932
2018-04-23T16:15:30.695Z,5800
2018-04-23T16:16:52.836Z,5600
2018-04-23T16:18:14.948Z,5464
2018-04-23T16:19:37.023Z,5508
2018-04-23T16:20:58.867Z,5948
2018-04-23T16:22:20.973Z,6072
2018-04-23T16:23:43.087Z,5788
2018-04-23T16:25:05.173Z,5684
2018-04-23T16:26:26.992Z,6028
2018-04-23T16:27:49.126Z,5620
2018-04-23T16:29:10.966Z,5256
2018-04-23T16:30:33.048Z,5072
2018-04-23T16:31:55.163Z,5220
2018-04-23T16:33:17.259Z,5708
2018-04-23T16:34:39.096Z,5928
2018-04-23T16:36:01.197Z,5904
2018-04-23T16:37:23.025Z,6292
2018-04-23T16:38:44.876Z,6140
2018-04-23T16:40:07.034Z,7232
2018-04-23T16:41:29.146Z,7132
2018-04-23T16:42:50.702Z,6744
2018-04-23T16:44:12.844Z,6284
2018-04-23T16:45:34.674Z,5872
2018-04-23T16:46:56.274Z,5488
2018-04-23T16:48:18.377Z,5480
2018-04-23T16:49:40.467Z,5228
2018-04-23T16:51:02.319Z,5052
2018-04-23T16:52:24.177Z,5192
2018-04-23T16:53:46.326Z,5392
2018-04-23T16:55:08.183Z,4596
2018-04-23T16:56:30.373Z,4280
2018-04-23T16:57:52.475Z,4116
2018-04-23T16:59:14.562Z,3860
2018-04-23T17:00:36.663Z,3724
2018-04-23T17:01:58.783Z,4048
2018-04-23T17:03:20.665Z,4136
2018-04-23T17:04:42.547Z,4060
2018-04-23T17:06:04.660Z,4392
2018-04-23T17:07:26.786Z,5224
2018-04-23T17:08:48.652Z,5964
2018-04-23T17:10:10.844Z,5760
2018-04-23T17:11:32.996Z,5836
2018-04-23T17:12:55.105Z,6012
2018-04-23T17:14:16.708Z,5352
2018-04-23T17:15:38.580Z,4124
2018-04-23T17:17:00.693Z,3752
2018-04-23T17:18:22.586Z,4032
2018-04-23T17:19:44.473Z,4212
2018-04-23T17:21:06.334Z,4368
2018-04-23T17:22:28.201Z,4812
2018-04-23T17:23:49.559Z,4392
2018-04-23T17:25:11.412Z,3692
2018-04-23T17:26:32.991Z,3516
2018-04-23T17:27:55.153Z,3344
2018-04-23T17:29:17.039Z,3060
2018-04-23T17:30:39.135Z,2776
2018-04-23T17:32:01.270Z,2692
2018-04-23T17:33:23.399Z,3340
2018-04-23T17:34:45.234Z,3672
2018-04-23T17:36:07.071Z,3792
2018-04-23T17:37:28.985Z,3100
2018-04-23T17:38:50.842Z,3060
2018-04-23T17:40:12.711Z,2952
2018-04-23T17:41:34.822Z,3064
2018-04-23T17:42:56.992Z,2708
2018-04-23T17:44:18.842Z,2472
2018-04-23T17:45:40.720Z,2516
2018-04-23T17:47:02.866Z,2620
2018-04-23T17:48:24.423Z,2860
2018-04-23T17:49:46.524Z,3352
2018-04-23T17:51:08.599Z,3424
2018-04-23T17:52:30.730Z,3412
2018-04-23T17:53:52.587Z,3412
2018-04-23T17:55:14.438Z,3224
2018-04-23T17:56:36.547Z,3104
2018-04-23T17:57:58.426Z,2948
2018-04-23T17:59:20.255Z,2676
2018-04-23T18:00:42.082Z,2380
2018-04-23T18:02:04.244Z,2172
2018-04-23T18:03:26.055Z,2004
2018-04-23T18:04:47.895Z,1820
2018-04-23T18:06:09.768Z,1672
2018-04-23T18:07:31.905Z,1544
2018-04-23T18:08:54.033Z,1408
2018-04-23T18:10:15.857Z,1296
2018-04-23T18:11:37.977Z,1192
2018-04-23T18:12:59.850Z,1108
2018-04-23T18:14:22.017Z,1036
2018-04-23T18:15:44.165Z,972
2018-04-23T18:17:05.732Z,916
2018-04-23T18:18:27.838Z,864
2018-04-23T18:19:49.680Z,808